Time;durP1;ratioP1;P1;durP2;ratioP2;P2;SDS_P1;SDS_P2;PMS_P1;PMS_P2;Temp;Humidity;BMP_temperature;BMP_pressure;BME280_temperature;BME280_humidity;BME280_pressure;Samples;Min_cycle;Max_cycle;Signal;HPM_P1;HPM_P2
2021/09/12 00:00:50;;;;;;;;;;;;;;;22.53;62.87;101595.41;7283607;19;152422;-52
2021/09/12 00:03:18;;;;;;;;;;;;;;;22.61;62.76;101600.38;7288030;19;153816;-55
2021/09/12 00:05:45;;;;;;;;;;;;;;;22.61;62.50;101594.72;7282109;19;153553;-52
2021/09/12 00:08:11;;;;;;;;;;;;;;;22.60;62.64;101592.22;7280136;19;152291;-52
2021/09/12 00:10:38;;;;;;;;;;;;;;;22.60;62.98;101597.84;7282569;19;152209;-52
2021/09/12 00:13:05;;;;;;;;;;;;;;;22.58;62.74;101598.16;7282211;19;151904;-51
2021/09/12 00:15:32;;;;;;;;;;;;;;;22.58;63.17;101592.50;7282366;19;153243;-53
2021/09/12 00:17:59;;;;;;;;;;;;;;;22.59;63.38;101593.34;7283449;19;152342;-52
2021/09/12 00:20:25;;;;;;;;;;;;;;;22.61;63.25;101585.44;7280379;19;152505;-51
2021/09/12 00:22:52;;;;;;;;;;;;;;;22.59;63.19;101591.38;7287385;19;154209;-53
2021/09/12 00:25:19;;;;;;;;;;;;;;;22.59;63.28;101591.38;7278391;19;152783;-53
2021/09/12 00:27:45;;;;;;;;;;;;;;;22.62;63.48;101601.22;7275091;19;153450;-52
2021/09/12 00:30:12;;;;;;;;;;;;;;;22.60;63.32;101597.84;7281102;19;152021;-52
2021/09/12 00:32:39;;;;;;;;;;;;;;;22.58;63.24;101600.13;7280028;19;152456;-51
2021/09/12 00:35:06;;;;;;;;;;;;;;;22.59;63.51;101594.19;7278100;19;153393;-53
2021/09/12 00:37:33;;;;;;;;;;;;;;;22.61;63.37;101600.38;7281816;19;152263;-52
2021/09/12 00:40:00;;;;;;;;;;;;;;;22.60;63.14;101598.69;7282339;19;151787;-52
2021/09/12 00:42:26;;;;;;;;;;;;;;;22.60;63.24;101597.84;7279334;19;153805;-52
2021/09/12 00:44:53;;;;;;;;;;;;;;;22.62;63.55;101602.00;7289525;19;152029;-52
2021/09/12 00:47:20;;;;;;;;;;;;;;;22.60;63.45;101592.22;7281229;19;153814;-52
2021/09/12 00:49:46;;;;;;;;;;;;;;;22.60;63.12;101590.25;7281151;19;152037;-52
2021/09/12 00:52:14;;;;;;;;;;;;;;;22.61;63.41;101593.91;7281876;19;153357;-52
2021/09/12 00:54:41;;;;;;;;;;;;;;;22.60;63.47;101598.69;7278473;19;153276;-51
2021/09/12 00:57:09;;;;;;;;;;;;;;;22.63;63.65;101600.88;7281870;19;152737;-52
2021/09/12 00:59:36;;;;;;;;;;;;;;;22.62;63.37;101593.56;7281937;19;153214;-53
2021/09/12 01:02:04;;;;;;;;;;;;;;;22.63;63.46;101595.25;7280928;19;153281;-53
2021/09/12 01:04:33;;;;;;;;;;;;;;;22.62;63.66;101602.00;7281721;19;152118;-52
2021/09/12 01:07:00;;;;;;;;;;;;;;;22.63;63.63;101597.22;7279422;19;153556;-52
2021/09/12 01:09:28;;;;;;;;;;;;;;;22.61;63.69;101591.06;7281156;19;152469;-53
2021/09/12 01:11:59;;;;;;;;;;;;;;;22.63;63.74;101595.25;7279568;19;153510;-53
2021/09/12 01:14:26;;;;;;;;;;;;;;;22.62;63.68;101590.75;7278808;19;153966;-53
2021/09/12 01:16:53;;;;;;;;;;;;;;;22.61;63.49;101597.56;7279199;19;151715;-52
2021/09/12 01:19:19;;;;;;;;;;;;;;;22.64;63.87;101598.91;7281070;19;153442;-52
2021/09/12 01:21:46;;;;;;;;;;;;;;;22.63;63.83;101592.44;7279020;19;153207;-52
2021/09/12 01:24:13;;;;;;;;;;;;;;;22.61;63.82;101589.09;7287077;19;152846;-52
2021/09/12 01:26:40;;;;;;;;;;;;;;;22.61;63.78;101597.56;7283792;19;152709;-53
2021/09/12 01:29:07;;;;;;;;;;;;;;;22.64;63.45;101598.91;7288512;19;153161;-52
2021/09/12 01:31:35;;;;;;;;;;;;;;;22.63;63.43;101598.06;7287329;19;152478;-52
2021/09/12 01:34:07;;;;;;;;;;;;;;;22.64;63.79;101598.91;7284537;19;155546;-50
2021/09/12 01:36:38;;;;;;;;;;;;;;;22.62;63.85;101593.56;7287712;19;151947;-51
2021/09/12 01:39:09;;;;;;;;;;;;;;;22.64;63.86;101596.09;7283601;19;152361;-50
2021/09/12 01:41:39;;;;;;;;;;;;;;;22.61;63.74;101594.72;7282806;19;152703;-50
2021/09/12 01:44:06;;;;;;;;;;;;;;;22.62;63.86;101590.75;7286129;19;152505;-50
2021/09/12 01:46:33;;;;;;;;;;;;;;;22.61;63.76;101588.25;7287096;19;152727;-50
2021/09/12 01:49:04;;;;;;;;;;;;;;;22.60;64.03;101597.84;7285324;19;152892;-50
2021/09/12 01:51:31;;;;;;;;;;;;;;;22.63;63.90;101591.59;7294958;19;152136;-50
2021/09/12 01:53:58;;;;;;;;;;;;;;;22.61;63.94;101589.09;7284803;19;152720;-53
2021/09/12 01:56:24;;;;;;;;;;;;;;;22.60;64.16;101586.59;7285048;19;152365;-53
2021/09/12 01:58:51;;;;;;;;;;;;;;;22.61;64.01;101588.25;7286509;19;153605;-52
2021/09/12 02:01:18;;;;;;;;;;;;;;;22.59;63.81;101582.91;7284912;19;154093;-52
2021/09/12 02:03:46;;;;;;;;;;;;;;;22.60;64.21;101581.78;7284873;19;152322;-52
2021/09/12 02:06:13;;;;;;;;;;;;;;;22.62;64.46;101596.38;7285572;19;153328;-52
2021/09/12 02:08:40;;;;;;;;;;;;;;;22.63;64.22;101598.06;7285992;19;154046;-52
2021/09/12 02:11:07;;;;;;;;;;;;;;;22.62;64.47;101596.38;7286345;19;151852;-53
2021/09/12 02:13:34;;;;;;;;;;;;;;;22.66;64.45;101595.78;7291096;19;153682;-54
2021/09/12 02:16:00;;;;;;;;;;;;;;;22.64;64.21;101604.53;7286831;19;152719;-53
2021/09/12 02:18:27;;;;;;;;;;;;;;;22.65;64.35;101596.94;7285459;19;154259;-52
2021/09/12 02:20:54;;;;;;;;;;;;;;;22.62;64.34;101596.38;7282862;19;153689;-53
2021/09/12 02:23:20;;;;;;;;;;;;;;;22.63;64.45;101602.84;7285232;19;152240;-57
2021/09/12 02:25:47;;;;;;;;;;;;;;;22.63;64.13;101600.03;7285169;19;153207;-50
2021/09/12 02:28:14;;;;;;;;;;;;;;;22.64;63.94;101604.53;7279089;19;153355;-50
2021/09/12 02:30:42;;;;;;;;;;;;;;;22.65;64.21;101605.38;7283133;19;152597;-54
2021/09/12 02:33:09;;;;;;;;;;;;;;;22.63;64.14;101598.06;7289688;19;153014;-53
2021/09/12 02:35:35;;;;;;;;;;;;;;;22.63;63.90;101598.06;7283714;19;151854;-53
2021/09/12 02:38:02;;;;;;;;;;;;;;;22.65;64.03;101589.31;7285708;19;153245;-53
2021/09/12 02:40:29;;;;;;;;;;;;;;;22.64;63.75;101596.09;7284998;19;152726;-52
2021/09/12 02:42:56;;;;;;;;;;;;;;;22.64;64.18;101593.28;7284792;19;153056;-53
2021/09/12 02:45:22;;;;;;;;;;;;;;;22.65;64.33;101597.75;7284977;19;152048;-53
2021/09/12 02:47:49;;;;;;;;;;;;;;;22.66;64.27;101595.78;7283958;19;154533;-54
2021/09/12 02:50:16;;;;;;;;;;;;;;;22.63;64.44;101600.88;7285183;19;152143;-53
2021/09/12 02:52:42;;;;;;;;;;;;;;;22.63;64.20;101594.41;7284539;19;153342;-52
2021/09/12 02:55:10;;;;;;;;;;;;;;;22.62;63.99;101599.19;7290084;19;152207;-53
2021/09/12 02:57:36;;;;;;;;;;;;;;;22.62;64.12;101590.75;7282534;19;152702;-52
2021/09/12 03:00:03;;;;;;;;;;;;;;;22.64;64.27;101590.44;7284444;19;152667;-53
2021/09/12 03:02:30;;;;;;;;;;;;;;;22.63;64.26;101592.44;7283941;19;151990;-52
2021/09/12 03:04:57;;;;;;;;;;;;;;;22.63;64.45;101585.97;7285441;19;152219;-52
2021/09/12 03:07:24;;;;;;;;;;;;;;;22.65;64.56;101596.94;7280959;19;154373;-52
2021/09/12 03:09:50;;;;;;;;;;;;;;;22.62;64.53;101593.56;7285253;19;152156;-53
2021/09/12 03:12:17;;;;;;;;;;;;;;;22.61;64.10;101582.63;7284998;19;153287;-52
2021/09/12 03:14:44;;;;;;;;;;;;;;;22.63;64.64;101589.63;7284189;19;154028;-53
2021/09/12 03:17:11;;;;;;;;;;;;;;;22.65;64.24;101591.28;7289772;19;152290;-53
2021/09/12 03:19:38;;;;;;;;;;;;;;;22.65;64.69;101597.75;7282672;19;153182;-50
2021/09/12 03:22:05;;;;;;;;;;;;;;;22.61;64.22;101589.09;7284501;19;151849;-50
2021/09/12 03:24:32;;;;;;;;;;;;;;;22.62;64.69;101596.38;7286037;19;153673;-51
2021/09/12 03:26:58;;;;;;;;;;;;;;;22.63;64.56;101600.88;7278777;19;153758;-51
2021/09/12 03:29:25;;;;;;;;;;;;;;;22.63;64.31;101603.69;7279140;19;151981;-50
2021/09/12 03:31:52;;;;;;;;;;;;;;;22.63;64.74;101603.69;7281526;19;153444;-50
2021/09/12 03:34:24;;;;;;;;;;;;;;;22.63;64.67;101594.41;7277230;19;152542;-51
2021/09/12 03:36:51;;;;;;;;;;;;;;;22.63;64.78;101600.88;7284634;19;151628;-50
2021/09/12 03:39:18;;;;;;;;;;;;;;;22.65;64.84;101594.94;7291301;19;154832;-50
2021/09/12 03:41:45;;;;;;;;;;;;;;;22.62;64.29;101593.56;7283913;19;151789;-53
2021/09/12 03:44:11;;;;;;;;;;;;;;;22.60;64.50;101601.50;7281364;19;153395;-50
2021/09/12 03:46:38;;;;;;;;;;;;;;;22.60;64.50;101595.03;7276391;19;154106;-50
2021/09/12 03:49:05;;;;;;;;;;;;;;;22.61;64.60;101600.38;7282615;19;152273;-50
2021/09/12 03:51:32;;;;;;;;;;;;;;;22.60;64.90;101593.06;7282581;19;151959;-50
2021/09/12 03:53:58;;;;;;;;;;;;;;;22.59;64.78;101599.81;7281214;19;152925;-50
2021/09/12 03:56:25;;;;;;;;;;;;;;;22.59;64.89;101597.00;7283880;19;151543;-50
2021/09/12 03:58:52;;;;;;;;;;;;;;;22.58;64.41;101609.41;7283263;19;153472;-50
2021/09/12 04:01:19;;;;;;;;;;;;;;;22.60;64.37;101604.31;7288892;19;154167;-50
2021/09/12 04:03:46;;;;;;;;;;;;;;;22.59;64.46;101599.81;7285842;19;153942;-51
2021/09/12 04:06:13;;;;;;;;;;;;;;;22.61;64.65;101603.19;7282772;19;154190;-50
2021/09/12 04:08:40;;;;;;;;;;;;;;;22.60;64.88;101601.50;7284819;19;151603;-50
2021/09/12 04:11:07;;;;;;;;;;;;;;;22.58;64.92;101595.31;7283620;19;152127;-50
2021/09/12 04:13:34;;;;;;;;;;;;;;;22.58;64.74;101597.31;7282785;19;153348;-50
2021/09/12 04:16:00;;;;;;;;;;;;;;;22.59;64.82;101597.00;7284615;19;151941;-50
2021/09/12 04:18:27;;;;;;;;;;;;;;;22.57;64.83;101599.31;7284438;19;152958;-50
2021/09/12 04:20:54;;;;;;;;;;;;;;;22.56;64.95;101596.78;7283849;19;154123;-49
2021/09/12 04:23:21;;;;;;;;;;;;;;;22.59;65.05;101608.28;7291676;19;151771;-50
2021/09/12 04:25:48;;;;;;;;;;;;;;;22.55;65.03;101601.59;7282016;19;153372;-50
2021/09/12 04:28:16;;;;;;;;;;;;;;;22.59;65.10;101604.63;7282455;19;154134;-51
2021/09/12 04:30:43;;;;;;;;;;;;;;;22.57;65.30;101609.75;7278156;19;153217;-50
2021/09/12 04:33:10;;;;;;;;;;;;;;;22.57;65.29;101602.13;7281558;19;154025;-50
2021/09/12 04:35:37;;;;;;;;;;;;;;;22.60;65.41;101609.94;7284752;19;152124;-51
2021/09/12 04:38:03;;;;;;;;;;;;;;;22.59;65.23;101601.81;7284510;19;152731;-51
2021/09/12 04:40:31;;;;;;;;;;;;;;;22.58;65.02;101603.78;7282482;19;154329;-50
2021/09/12 04:42:58;;;;;;;;;;;;;;;22.58;65.41;101597.31;7292014;19;151950;-50
2021/09/12 04:45:25;;;;;;;;;;;;;;;22.58;65.02;101600.13;7283034;19;154524;-50
2021/09/12 04:47:51;;;;;;;;;;;;;;;22.60;65.62;101595.03;7281707;19;151874;-50
2021/09/12 04:50:18;;;;;;;;;;;;;;;22.58;65.21;101595.31;7284067;19;153552;-50
2021/09/12 04:52:47;;;;;;;;;;;;;;;22.58;65.64;101598.16;7280440;19;154503;-50
2021/09/12 04:55:14;;;;;;;;;;;;;;;22.57;65.10;101596.50;7281740;19;151997;-50
2021/09/12 04:57:42;;;;;;;;;;;;;;;22.57;65.53;101596.50;7283859;19;153240;-50
2021/09/12 05:00:09;;;;;;;;;;;;;;;22.57;65.50;101598.47;7289988;19;154443;-50
2021/09/12 05:02:36;;;;;;;;;;;;;;;22.57;65.26;101599.31;7287788;19;152775;-50
2021/09/12 05:05:03;;;;;;;;;;;;;;;22.57;64.84;101599.31;7297765;19;153374;-50
2021/09/12 05:07:30;;;;;;;;;;;;;;;22.58;65.38;101606.59;7289769;19;151993;-50
2021/09/12 05:09:57;;;;;;;;;;;;;;;22.56;64.92;101600.44;7289584;19;152384;-50
2021/09/12 05:12:24;;;;;;;;;;;;;;;22.56;65.29;101602.41;7289610;19;153850;-51
2021/09/12 05:14:51;;;;;;;;;;;;;;;22.55;64.98;101607.22;7291001;19;152306;-50
2021/09/12 05:17:18;;;;;;;;;;;;;;;22.56;65.16;101610.88;7289376;19;152084;-50
2021/09/12 05:19:46;;;;;;;;;;;;;;;22.57;65.22;101615.38;7290050;19;153795;-51
2021/09/12 05:22:13;;;;;;;;;;;;;;;22.58;65.24;101611.38;7289655;19;152661;-50
2021/09/12 05:24:40;;;;;;;;;;;;;;;22.57;65.17;101615.38;7288016;19;152785;-50
2021/09/12 05:27:07;;;;;;;;;;;;;;;22.57;65.14;101613.41;7292815;19;154184;-50
2021/09/12 05:29:34;;;;;;;;;;;;;;;22.56;65.40;101613.69;7288262;19;152309;-50
2021/09/12 05:32:01;;;;;;;;;;;;;;;22.57;65.40;101618.19;7283530;19;152417;-50
2021/09/12 05:34:28;;;;;;;;;;;;;;;22.55;64.82;101615.66;7288117;19;151748;-51
2021/09/12 05:36:55;;;;;;;;;;;;;;;22.54;65.02;101608.34;7286747;19;153754;-50
2021/09/12 05:39:22;;;;;;;;;;;;;;;22.54;65.52;101615.97;7286987;19;154339;-50
2021/09/12 05:41:49;;;;;;;;;;;;;;;22.53;64.95;101626.38;7288892;19;152039;-50
2021/09/12 05:44:16;;;;;;;;;;;;;;;22.54;65.33;101615.97;7288608;19;153441;-51
2021/09/12 05:46:44;;;;;;;;;;;;;;;22.55;65.25;101615.66;7286665;19;154314;-50
2021/09/12 05:49:11;;;;;;;;;;;;;;;22.53;65.34;101614.31;7296240;19;151794;-50
2021/09/12 05:51:38;;;;;;;;;;;;;;;22.52;65.55;101612.63;7288595;19;153445;-50
2021/09/12 05:54:05;;;;;;;;;;;;;;;22.53;65.34;101615.13;7286757;19;151697;-51
2021/09/12 05:56:32;;;;;;;;;;;;;;;22.51;65.52;101617.44;7289460;19;153437;-50
2021/09/12 05:58:58;;;;;;;;;;;;;;;22.55;65.66;101612.00;7288181;19;154175;-50
2021/09/12 06:01:25;;;;;;;;;;;;;;;22.54;65.57;101611.16;7288853;19;152016;-50
2021/09/12 06:03:53;;;;;;;;;;;;;;;22.53;65.76;101615.13;7287587;19;153661;-51
2021/09/12 06:06:20;;;;;;;;;;;;;;;22.52;65.37;101626.72;7286270;19;154045;-49
2021/09/12 06:08:46;;;;;;;;;;;;;;;22.54;65.86;101633.69;7283246;19;151967;-50
2021/09/12 06:11:13;;;;;;;;;;;;;;;22.54;65.30;101630.88;7295478;19;152050;-50
2021/09/12 06:13:41;;;;;;;;;;;;;;;22.54;65.81;101635.69;7289134;19;151562;-50
2021/09/12 06:16:08;;;;;;;;;;;;;;;22.53;65.45;101631.22;7288898;19;153892;-50
2021/09/12 06:18:36;;;;;;;;;;;;;;;22.54;65.74;101638.50;7285503;19;153429;-50
2021/09/12 06:21:06;;;;;;;;;;;;;;;22.54;65.51;101644.13;7286123;19;151979;-49
2021/09/12 06:23:33;;;;;;;;;;;;;;;22.54;65.33;101647.78;7287640;19;153536;-51
2021/09/12 06:26:02;;;;;;;;;;;;;;;22.52;65.30;101655.72;7287092;19;152634;-50
2021/09/12 06:28:29;;;;;;;;;;;;;;;22.51;65.54;101651.22;7282913;19;152019;-51
2021/09/12 06:30:56;;;;;;;;;;;;;;;22.52;65.12;101655.72;7284483;19;152597;-51
2021/09/12 06:33:23;;;;;;;;;;;;;;;22.52;65.18;101654.88;7285933;19;151942;-51
2021/09/12 06:35:50;;;;;;;;;;;;;;;22.56;65.34;101667.19;7284343;19;152314;-50
2021/09/12 06:38:17;;;;;;;;;;;;;;;22.51;65.35;101668.13;7280415;19;154136;-50
2021/09/12 06:40:44;;;;;;;;;;;;;;;22.52;64.97;101666.16;7285059;19;152056;-51
2021/09/12 06:43:11;;;;;;;;;;;;;;;22.51;64.91;101668.13;7286227;19;152930;-49
2021/09/12 06:45:39;;;;;;;;;;;;;;;22.52;65.49;101658.53;7282649;19;154160;-50
2021/09/12 06:48:05;;;;;;;;;;;;;;;22.51;65.18;101662.47;7282915;19;151844;-51
2021/09/12 06:50:32;;;;;;;;;;;;;;;22.50;65.02;101669.25;7284904;19;154366;-50
2021/09/12 06:52:59;;;;;;;;;;;;;;;22.51;65.45;101676.56;7290438;19;153732;-51
2021/09/12 06:55:26;;;;;;;;;;;;;;;22.51;65.43;101679.38;7284261;19;153216;-50
2021/09/12 06:57:53;;;;;;;;;;;;;;;22.50;65.46;101672.06;7283830;19;153952;-51
2021/09/12 07:00:20;;;;;;;;;;;;;;;22.49;65.34;101664.75;7285856;19;151662;-50
2021/09/12 07:02:46;;;;;;;;;;;;;;;22.49;65.62;101675.19;7284963;19;153814;-50
2021/09/12 07:05:14;;;;;;;;;;;;;;;22.49;65.80;101669.53;7283726;19;153752;-50
2021/09/12 07:07:41;;;;;;;;;;;;;;;22.48;65.46;101671.56;7284135;19;151683;-50
2021/09/12 07:10:08;;;;;;;;;;;;;;;22.49;65.65;101670.38;7285513;19;153328;-50
2021/09/12 07:12:35;;;;;;;;;;;;;;;22.46;65.44;101665.38;7284662;19;154245;-50
2021/09/12 07:15:03;;;;;;;;;;;;;;;22.46;65.98;101665.38;7290501;19;151955;-50
2021/09/12 07:17:29;;;;;;;;;;;;;;;22.48;65.77;101673.53;7280549;19;152719;-50
2021/09/12 07:19:56;;;;;;;;;;;;;;;22.48;65.92;101677.19;7283298;19;151909;-50
2021/09/12 07:22:23;;;;;;;;;;;;;;;22.49;66.07;101670.38;7284311;19;152500;-50
2021/09/12 07:24:50;;;;;;;;;;;;;;;22.47;66.06;101675.50;7281662;19;153193;-51
2021/09/12 07:27:16;;;;;;;;;;;;;;;22.46;66.05;101673.81;7283803;19;151740;-51
2021/09/12 07:29:51;;;;;;;;;;;;;;;22.45;66.04;101676.94;7282672;19;152755;-51
2021/09/12 07:32:18;;;;;;;;;;;;;;;22.46;66.19;101676.63;7279469;19;152688;-50
2021/09/12 07:34:45;;;;;;;;;;;;;;;22.46;65.80;101673.81;7280110;19;151514;-50
2021/09/12 07:37:12;;;;;;;;;;;;;;;22.47;66.26;101683.94;7286128;19;152008;-50
2021/09/12 07:39:40;;;;;;;;;;;;;;;22.48;66.12;101680.00;7283337;19;152121;-50
2021/09/12 07:42:07;;;;;;;;;;;;;;;22.48;66.38;101684.78;7284703;19;152060;-50
2021/09/12 07:44:36;;;;;;;;;;;;;;;22.49;66.40;101684.47;7280905;19;153975;-50
2021/09/12 07:47:03;;;;;;;;;;;;;;;22.50;66.44;101686.16;7281046;19;153150;-50
2021/09/12 07:49:30;;;;;;;;;;;;;;;22.51;66.57;101682.19;7281417;19;152633;-50
2021/09/12 07:51:57;;;;;;;;;;;;;;;22.48;66.53;101679.16;7282834;19;155044;-51
2021/09/12 07:54:24;;;;;;;;;;;;;;;22.51;66.55;101681.34;7279663;19;151958;-50
2021/09/12 07:56:51;;;;;;;;;;;;;;;22.50;66.26;101676.84;7284841;19;152702;-49
2021/09/12 07:59:18;;;;;;;;;;;;;;;22.50;66.61;101683.34;7287883;19;153385;-50
2021/09/12 08:01:45;;;;;;;;;;;;;;;22.51;66.34;101685.00;7283537;19;153454;-50
2021/09/12 08:04:12;;;;;;;;;;;;;;;22.52;66.47;101689.50;7281791;19;154102;-51
2021/09/12 08:06:46;;;;;;;;;;;;;;;22.52;65.93;101689.50;7283986;19;151756;-50
2021/09/12 08:09:12;;;;;;;;;;;;;;;22.52;66.06;101689.50;7281989;19;152989;-50
2021/09/12 08:11:39;;;;;;;;;;;;;;;22.53;66.45;101684.72;7281838;19;153017;-50
2021/09/12 08:14:06;;;;;;;;;;;;;;;22.52;66.11;101692.34;7283842;19;151807;-50
2021/09/12 08:16:33;;;;;;;;;;;;;;;22.52;66.38;101697.13;7283510;19;152304;-50
2021/09/12 08:19:01;;;;;;;;;;;;;;;22.52;66.16;101694.31;7280482;19;152661;-50
2021/09/12 08:21:29;;;;;;;;;;;;;;;22.54;66.66;101692.84;7291746;19;151866;-50
2021/09/12 08:23:56;;;;;;;;;;;;;;;22.50;65.54;101688.97;7281891;19;153409;-50
2021/09/12 08:26:23;;;;;;;;;;;;;;;22.48;65.90;101696.06;7281152;19;152185;-50
2021/09/12 08:28:49;;;;;;;;;;;;;;;22.47;66.29;101692.41;7279315;19;152379;-52
2021/09/12 08:31:16;;;;;;;;;;;;;;;22.47;66.09;101685.94;7282400;19;154095;-52
2021/09/12 08:33:43;;;;;;;;;;;;;;;22.49;65.87;101684.47;7285529;19;151966;-59
2021/09/12 08:36:10;;;;;;;;;;;;;;;22.51;65.71;101687.00;7287177;19;152627;-53
2021/09/12 08:38:37;;;;;;;;;;;;;;;22.47;65.71;101678.31;7286381;19;152964;-52
2021/09/12 08:41:04;;;;;;;;;;;;;;;22.47;65.58;101681.13;7295881;19;151817;-53
2021/09/12 08:43:32;;;;;;;;;;;;;;;22.45;65.77;101680.59;7288740;19;153437;-53
2021/09/12 08:45:59;;;;;;;;;;;;;;;22.45;65.58;101682.56;7287325;19;153601;-51
2021/09/12 08:48:26;;;;;;;;;;;;;;;22.44;65.51;101690.16;7287844;19;152918;-50
2021/09/12 08:50:58;;;;;;;;;;;;;;;22.47;65.47;101689.59;7287061;19;153825;-51
2021/09/12 08:53:25;;;;;;;;;;;;;;;22.48;65.75;101690.44;7287812;19;152356;-50
2021/09/12 08:55:52;;;;;;;;;;;;;;;22.45;65.72;101703.13;7284748;19;152362;-50
2021/09/12 08:58:19;;;;;;;;;;;;;;;22.44;66.07;101707.06;7286600;19;153942;-50
2021/09/12 09:00:47;;;;;;;;;;;;;;;22.43;65.74;101705.41;7287101;19;151887;-50
2021/09/12 09:03:14;;;;;;;;;;;;;;;22.43;66.01;101701.75;7293862;19;152089;-50
2021/09/12 09:05:42;;;;;;;;;;;;;;;22.42;66.15;101715.00;7288048;19;152238;-50
2021/09/12 09:08:12;;;;;;;;;;;;;;;22.42;66.12;101717.81;7283002;19;152259;-50
2021/09/12 09:10:52;;;;;;;;;;;;;;;22.43;66.58;101718.66;7286995;19;152360;-50
2021/09/12 09:13:24;;;;;;;;;;;;;;;22.43;66.20;101716.69;7285544;19;152352;-51
2021/09/12 09:15:55;;;;;;;;;;;;;;;22.43;66.18;101711.03;7287638;19;152163;-51
2021/09/12 09:18:40;;;;;;;;;;;;;;;22.44;66.24;101718.34;7280011;19;152451;-51
2021/09/12 09:21:15;;;;;;;;;;;;;;;22.44;66.48;101717.53;7284779;19;152331;-51
2021/09/12 09:23:47;;;;;;;;;;;;;;;22.45;66.29;101711.56;7285241;19;152554;-51
2021/09/12 09:26:21;;;;;;;;;;;;;;;22.47;66.34;101714.09;7293264;19;153934;-51
2021/09/12 09:28:54;;;;;;;;;;;;;;;22.49;66.53;101709.81;7285480;19;151855;-58
2021/09/12 09:31:23;;;;;;;;;;;;;;;22.49;65.38;101711.78;7285715;19;152548;-51
2021/09/12 09:33:52;;;;;;;;;;;;;;;22.46;64.50;101707.63;7284917;19;152866;-51
2021/09/12 09:36:19;;;;;;;;;;;;;;;22.47;64.82;101716.91;7283525;19;152026;-65
2021/09/12 09:38:47;;;;;;;;;;;;;;;22.46;64.92;101716.06;7286042;19;153618;-52
2021/09/12 09:41:57;;;;;;;;;;;;;;;22.47;64.48;101712.13;7286033;19;154478;-52
2021/09/12 09:44:51;;;;;;;;;;;;;;;22.47;64.40;101712.13;7279784;19;152001;-51
2021/09/12 09:47:25;;;;;;;;;;;;;;;22.48;64.03;101707.31;7284731;19;154019;-57
2021/09/12 09:50:01;;;;;;;;;;;;;;;22.48;64.19;101712.97;7290688;19;151929;-51
2021/09/12 09:52:30;;;;;;;;;;;;;;;22.49;64.07;101721.09;7285175;19;154377;-51
2021/09/12 09:54:57;;;;;;;;;;;;;;;22.49;63.93;101714.59;7285866;19;152420;-51
2021/09/12 09:57:30;;;;;;;;;;;;;;;22.49;64.08;101718.25;7287595;19;154169;-52
2021/09/12 09:59:59;;;;;;;;;;;;;;;22.51;64.00;101715.16;7282074;19;155740;-51
2021/09/12 10:02:27;;;;;;;;;;;;;;;22.51;63.85;101716.00;7286053;19;152260;-56
2021/09/12 10:04:55;;;;;;;;;;;;;;;22.50;63.49;101717.13;7283497;19;152760;-63
2021/09/12 10:07:22;;;;;;;;;;;;;;;22.51;63.40;101718.81;7282413;19;155745;-52
2021/09/12 10:09:50;;;;;;;;;;;;;;;22.53;63.37;101712.88;7284547;19;152231;-51
2021/09/12 10:12:20;;;;;;;;;;;;;;;22.52;63.31;101716.84;7291914;19;152408;-52
2021/09/12 10:14:50;;;;;;;;;;;;;;;22.52;63.30;101712.03;7286237;19;152146;-52
2021/09/12 10:17:20;;;;;;;;;;;;;;;22.52;63.69;101711.19;7283145;19;152754;-52
2021/09/12 10:19:48;;;;;;;;;;;;;;;22.54;62.91;101706.09;7282184;19;153591;-51
2021/09/12 10:22:17;;;;;;;;;;;;;;;22.55;62.84;101705.78;7284465;19;152108;-52
2021/09/12 10:24:46;;;;;;;;;;;;;;;22.50;61.59;101703.06;7285858;19;153390;-52
2021/09/12 10:27:41;;;;;;;;;;;;;;;22.50;61.53;101699.38;7283664;19;153365;-52
2021/09/12 10:30:15;;;;;;;;;;;;;;;22.51;61.92;101703.88;7281819;19;152677;-52
2021/09/12 10:32:42;;;;;;;;;;;;;;;22.49;60.95;101706.16;7282847;19;153279;-52
2021/09/12 10:35:13;;;;;;;;;;;;;;;22.50;60.87;101699.38;7290351;19;154316;-51
2021/09/12 10:37:52;;;;;;;;;;;;;;;22.49;61.13;101694.91;7279463;19;153705;-52
2021/09/12 10:40:20;;;;;;;;;;;;;;;22.50;60.10;101696.56;7281184;19;152776;-52
2021/09/12 10:42:47;;;;;;;;;;;;;;;22.50;60.39;101691.78;7284647;19;151948;-51
2021/09/12 10:45:19;;;;;;;;;;;;;;;22.52;61.12;101694.31;7285554;19;153220;-51
2021/09/12 10:47:49;;;;;;;;;;;;;;;22.51;61.75;101689.81;7279608;19;154254;-52
2021/09/12 10:50:20;;;;;;;;;;;;;;;22.49;61.63;101686.44;7282521;19;151891;-52
2021/09/12 10:52:52;;;;;;;;;;;;;;;22.52;61.38;101677.41;7281935;19;153063;-52
2021/09/12 10:55:18;;;;;;;;;;;;;;;22.53;60.33;101677.09;7288184;19;153386;-52
2021/09/12 10:58:03;;;;;;;;;;;;;;;22.56;60.63;101667.19;7283169;19;152501;-52
2021/09/12 11:00:58;;;;;;;;;;;;;;;22.57;60.00;101668.88;7274259;19;152183;-51
2021/09/12 11:03:26;;;;;;;;;;;;;;;22.59;58.38;101667.44;7281730;19;152163;-52
2021/09/12 11:05:54;;;;;;;;;;;;;;;22.61;57.00;101661.50;7277546;19;152839;-52
2021/09/12 11:08:34;;;;;;;;;;;;;;;22.66;56.90;101663.41;7280422;19;153287;-52
2021/09/12 11:11:01;;;;;;;;;;;;;;;22.69;55.84;101659.97;7283862;19;151990;-52
2021/09/12 11:13:28;;;;;;;;;;;;;;;22.65;56.50;101667.34;7279861;19;153542;-52
2021/09/12 11:16:07;;;;;;;;;;;;;;;22.59;57.23;101663.75;7283441;19;154686;-52
2021/09/12 11:18:43;;;;;;;;;;;;;;;22.66;56.54;101666.22;7291690;19;152073;-52
2021/09/12 11:21:10;;;;;;;;;;;;;;;22.57;56.43;101664.09;7282579;19;153338;-52
2021/09/12 11:23:39;;;;;;;;;;;;;;;22.57;57.34;101666.06;7283775;19;151895;-53
2021/09/12 11:26:07;;;;;;;;;;;;;;;22.56;57.61;101659.59;7284709;19;152499;-53
2021/09/12 11:28:33;;;;;;;;;;;;;;;22.60;59.40;101659.81;7281156;19;154085;-52
2021/09/12 11:31:02;;;;;;;;;;;;;;;22.62;59.56;101668.81;7281933;19;152366;-52
2021/09/12 11:33:47;;;;;;;;;;;;;;;22.59;59.76;101670.25;7282863;19;153490;-52
2021/09/12 11:36:14;;;;;;;;;;;;;;;22.57;60.10;101669.72;7281023;19;152731;-52
2021/09/12 11:38:41;;;;;;;;;;;;;;;22.56;59.84;101673.69;7278800;19;152121;-53
2021/09/12 11:41:08;;;;;;;;;;;;;;;22.56;60.27;101661.56;7289837;19;152732;-52
2021/09/12 11:43:36;;;;;;;;;;;;;;;22.56;60.48;101665.22;7281834;19;151751;-52
2021/09/12 11:46:09;;;;;;;;;;;;;;;22.54;60.30;101661.88;7282107;19;152460;-52
2021/09/12 11:48:36;;;;;;;;;;;;;;;22.54;60.70;101656.22;7282699;19;153334;-52
2021/09/12 11:51:03;;;;;;;;;;;;;;;22.54;60.75;101659.06;7282397;19;152069;-52
2021/09/12 11:53:30;;;;;;;;;;;;;;;22.53;60.52;101663.00;7281663;19;153309;-52
2021/09/12 11:56:09;;;;;;;;;;;;;;;22.51;60.47;101667.28;7279607;19;154218;-52
2021/09/12 11:58:37;;;;;;;;;;;;;;;22.51;60.39;101659.66;7280787;19;152168;-52
2021/09/12 12:01:05;;;;;;;;;;;;;;;22.51;60.72;101667.28;7284252;19;153176;-52
2021/09/12 12:03:38;;;;;;;;;;;;;;;22.51;60.52;101662.47;7288247;19;153282;-52
2021/09/12 12:06:06;;;;;;;;;;;;;;;22.49;60.44;101664.75;7283155;19;152985;-51
2021/09/12 12:08:56;;;;;;;;;;;;;;;22.49;60.60;101664.75;7278457;19;153705;-52
2021/09/12 12:11:22;;;;;;;;;;;;;;;22.50;60.99;101674.03;7283233;19;152160;-52
2021/09/12 12:13:49;;;;;;;;;;;;;;;22.49;61.01;101667.56;7281555;19;153285;-52
2021/09/12 12:16:16;;;;;;;;;;;;;;;22.49;61.02;101675.19;7283158;19;153249;-53
2021/09/12 12:18:43;;;;;;;;;;;;;;;22.47;60.89;101667.06;7280548;19;151911;-52
2021/09/12 12:21:11;;;;;;;;;;;;;;;22.48;61.02;101668.75;7282721;19;153214;-52
2021/09/12 12:23:37;;;;;;;;;;;;;;;22.48;61.08;101670.72;7280113;19;153342;-52
2021/09/12 12:26:18;;;;;;;;;;;;;;;22.47;60.99;101667.06;7290437;19;151751;-53
2021/09/12 12:28:55;;;;;;;;;;;;;;;22.48;61.02;101656.63;7279186;19;152225;-53
2021/09/12 12:31:22;;;;;;;;;;;;;;;22.48;61.14;101662.25;7283255;19;152142;-53
2021/09/12 12:33:48;;;;;;;;;;;;;;;22.46;61.12;101662.56;7279376;19;152853;-53